LIPQ Airport Information

Runway Information
Runway 09 Length 9843 ft width 148 ft
Elevation 37 ft Threshold 656 ft Heading 90
Runway 27 Length 9843 ft Width 148 ft
Elevation 36 ft Threshold 0 ft Heading 270
Airport Frequencies
Type APP Name APP Frequency 119.175 MHZ
Type TWR Name TWR Frequency 130.2 MHZ
Airport Navaids
Type VOR-DME Name Ronchi Frequency 114200 KHZ
Type NDB Name Ronchi Frequency 396 KHZ
Airport Weather Information & NOTAM
ADDS - METARS form results

(0803 UTC 15 December 2018)
Data provider http://aviationweather.gov/metar/data/
 
METAR text: LIPQ 150750Z 29003KT 9999 FEW090 M02/M05 Q1020
Conditions at: LIPQ (RONCHI LEGIONARI, IT) observed 0750 UTC 15 December 2018
Temperature: -2.0°C (28°F)
Dewpoint: -5.0°C (23°F) [RH = 80%]
Pressure (altimeter): 30.12 inches Hg (1020.0 mb)
Winds: from the WNW (290 degrees) at 3 MPH (3 knots; 1.5 m/s)
Visibility: 6 or more miles (10+ km)
Ceiling: at least 12,000 feet AGL
Clouds: few clouds at 9000 feet AGL
Weather: no significant weather observed at this time

METAR text: LIPQ 150720Z 02003KT 340V110 9999 FEW090 M02/M06 Q1019
Conditions at: LIPQ (RONCHI LEGIONARI, IT) observed 0720 UTC 15 December 2018
Temperature: -2.0°C (28°F)
Dewpoint: -6.0°C (21°F) [RH = 74%]
Pressure (altimeter): 30.09 inches Hg (1019.0 mb)
Winds: from the NNE (20 degrees) at 3 MPH (3 knots; 1.5 m/s)
Visibility: 6 or more miles (10+ km)
Ceiling: at least 12,000 feet AGL
Clouds: few clouds at 9000 feet AGL
Weather: no significant weather observed at this time

Forecast for: LIPQ (RONCHI LEGIONARI, IT)
Text: TAF LIPQ 150500Z 1506/1606 VRB05KT CAVOK
Forecast period: 0600 UTC 15 December 2018 to 0600 UTC 16 December 2018
Forecast type: FROM: standard forecast or significant change
Winds: variable direction winds at 6 MPH (5 knots; 2.6 m/s)
Visibility: 6 or more miles 10+ km)
Ceiling: unknown
Clouds: missing
Weather: NSW  (no significant weather)